Southern Ontario METAR Reports

CYSN - St.Catharines
Updated: 10/13/2019 9:00pm
NOT Current
Few Clouds
Few Clouds
 Wind from S
Wind: S 13 km/h
Temperature: 12°C
Dew Point: 3°C
Humidity: 54%
Barometer: 1009.1 hPa
Clouds: Few Clouds
Visibility: 24 km
Cloud details: Few Clouds 7620 m
2019/10/14 01:00 CYSN 140100Z 18007KT 15SM FEW250 12/03 A2980 RMK CI2 LAST STFD OBS/NEXT 14 1100UTC SLP095
CYHM - Hamilton
Updated: 10/14/2019 2:00am
Overcast
Overcast
 Wind from W
Wind: W 11 km/h
Temperature: 8°C
Wind Chill: 6°C
Dew Point: 4°C
Humidity: 76%
Barometer: 1011.2 hPa
Clouds: Overcast
Visibility: 24 km
Cloud details: Few Clouds 1829 m
Partly cloudy 2438 m
Overcast 3048 m
2019/10/14 06:00 CYHM 140600Z 26006KT 15SM FEW060 SCT080 OVC100 08/04 A2986 RMK SC2AC2AC4 SLP116
 
CYYZ - Toronto
Updated: 10/14/2019 2:00am
Mostly cloudy
Mostly cloudy
 Wind from SSW
Wind: SSW 13 km/h
Temperature: 9°C
Wind Chill: 7°C
Dew Point: 2°C
Humidity: 62%
Barometer: 1010.5 hPa
Clouds: Mostly cloudy
Visibility: 24 km
Cloud details: Mostly cloudy 2743 m
2019/10/14 06:00 CYYZ 140600Z 20007KT 15SM BKN090 09/02 A2984 RMK AC7 SLP109
CYKF - Waterloo
Updated: 10/14/2019 2:00am
Overcast
Overcast
 Wind from WSW
Wind: WSW 13 km/h
Temperature: 7°C
Wind Chill: 5°C
Dew Point: 3°C
Humidity: 76%
Barometer: 1010.8 hPa
Clouds: Overcast
Visibility: 14 km
Cloud details: Mostly cloudy 2286 m
Overcast 2835 m
2019/10/14 06:00 CYKF 140600Z AUTO 24007KT 9SM BKN075 OVC093 07/03 A2985 RMK SLP112
 
CYXU - London
Updated: 10/14/2019 2:00am
Overcast
Overcast
 Wind from W
Wind: W 11 km/h
Temperature: 7°C
Wind Chill: 5°C
Dew Point: 3°C
Humidity: 76%
Barometer: 1011.5 hPa
Clouds: Overcast
Visibility: 24 km
Cloud details: Overcast 2682 m
2019/10/14 06:00 CYXU 140600Z 26006KT 15SM OVC088 07/03 A2987 RMK AC8 SLP120
CYQG - Windsor
Updated: 10/14/2019 2:00am
Overcast
Overcast
 Wind from W
Wind: W 15 km/h, Gust: 28 km/h
Temperature: 9°C
Wind Chill: 7°C
Dew Point: 2°C
Humidity: 62%
Barometer: 1012.9 hPa
Clouds: Overcast
Visibility: 14 km
Cloud details: Overcast 2896 m
2019/10/14 06:00 CYQG 140600Z AUTO 28008G15KT 9SM OVC095 09/02 A2991 RMK SLP130
 
CYZR - Sarnia
Updated: 10/14/2019 2:00am
Overcast
Overcast
 Wind from W
Wind: W 7 km/h
Temperature: 7°C
Wind Chill: 6°C
Dew Point: 2°C
Humidity: 71%
Barometer: 1011.5 hPa
Clouds: Overcast
Visibility: 14 km
Cloud details: Few Clouds 914 m
Overcast 3353 m
2019/10/14 06:00 CYZR 140600Z AUTO 26004KT 9SM FEW030 OVC110 07/02 A2987 RMK RVR MISG SLP119
CYVV - Wiarton
Updated: 10/14/2019 2:00am
Mostly cloudy
Mostly cloudy
 Wind from W
Wind: W 19 km/h, Gust: 33 km/h
Temperature: 7°C
Wind Chill: 4°C
Dew Point: 1°C
Humidity: 66%
Barometer: 1008.5 hPa
Clouds: Mostly cloudy
Visibility: 24 km
Cloud details: Partly cloudy 1067 m
Mostly cloudy 2743 m
2019/10/14 06:00 CYVV 140600Z 26010G18KT 15SM SCT035 BKN090 07/01 A2978 RMK SC4AC3 SLP089
 
CYPQ - Peterborough
Updated: 10/14/2019 2:00am
Overcast
Overcast
 Wind from SE
Wind: SE 4 km/h
Temperature: 8°C
Dew Point: 6°C
Humidity: 87%
Barometer: 1010.2 hPa
Clouds: Overcast
Visibility: 14 km
Cloud details: Overcast 2743 m
2019/10/14 06:00 CYPQ 140600Z AUTO 13002KT 9SM OVC090 08/06 A2983 RMK SLP107
CYTR - Trenton
Updated: 10/14/2019 2:00am
Light rain, Showers, Overcast
Light rain, Showers, Overcast
 Wind from WNW
Wind: WNW 9 km/h
Temperature: 11°C
Dew Point: 8°C
Humidity: 82%
Barometer: 1010.8 hPa
Summary: Light rain, Showers
Clouds: Overcast
Visibility: 19 km
Cloud details: Partly cloudy 1219 m
Overcast 2438 m
2019/10/14 06:00 CYTR 140600Z 30005KT 12SM -SHRA SCT040 OVC080 11/08 A2985 RMK SC3AC5 SLP110